createdAt,value
2017-07-25T00:01:54.426Z,99.90
2017-07-25T00:04:22.452Z,99.90
2017-07-25T00:06:50.520Z,99.90
2017-07-25T00:09:18.691Z,99.90
2017-07-25T00:11:46.920Z,99.90
2017-07-25T00:14:14.981Z,99.90
2017-07-25T00:16:43.155Z,99.90
2017-07-25T00:19:11.174Z,99.90
2017-07-25T00:21:39.220Z,99.90
2017-07-25T00:24:07.415Z,99.90
2017-07-25T00:26:35.470Z,99.90
2017-07-25T00:29:03.502Z,99.90
2017-07-25T00:31:31.704Z,99.90
2017-07-25T00:33:59.699Z,99.90
2017-07-25T00:36:27.768Z,99.90
2017-07-25T00:38:55.974Z,99.90
2017-07-25T00:41:24.033Z,99.90
2017-07-25T00:43:52.133Z,99.90
2017-07-25T00:46:20.322Z,99.90
2017-07-25T00:48:48.365Z,99.90
2017-07-25T00:51:16.377Z,99.90
2017-07-25T00:53:44.598Z,99.90
2017-07-25T00:56:12.642Z,99.90
2017-07-25T00:58:40.711Z,99.90
2017-07-25T01:01:08.936Z,99.90
2017-07-25T01:03:36.956Z,99.90
2017-07-25T01:06:05.014Z,99.90
2017-07-25T01:08:33.206Z,99.90
2017-07-25T01:11:01.207Z,99.90
2017-07-25T01:13:29.374Z,99.90
2017-07-25T01:15:57.568Z,99.90
2017-07-25T01:18:25.644Z,99.90
2017-07-25T01:20:53.645Z,99.90
2017-07-25T01:23:21.860Z,99.90
2017-07-25T01:25:49.845Z,99.90
2017-07-25T01:28:17.952Z,99.90
2017-07-25T01:30:46.160Z,99.90
2017-07-25T01:33:14.222Z,99.90
2017-07-25T01:35:42.258Z,99.90
2017-07-25T01:38:10.477Z,99.90
2017-07-25T01:40:38.565Z,99.90
2017-07-25T01:43:06.680Z,99.90
2017-07-25T01:45:34.877Z,99.90
2017-07-25T01:48:02.930Z,99.90
2017-07-25T02:03:22.349Z,99.90
2017-07-25T02:05:50.509Z,99.90
2017-07-25T02:08:18.542Z,99.90
2017-07-25T02:10:46.684Z,99.90
2017-07-25T02:13:14.713Z,99.90
2017-07-25T02:15:42.947Z,99.90
2017-07-25T02:18:11.116Z,99.90
2017-07-25T02:20:39.196Z,99.90
2017-07-25T02:23:07.260Z,99.90
2017-07-25T02:25:35.401Z,99.90
2017-07-25T02:28:03.564Z,99.90
2017-07-25T02:30:31.620Z,99.90
2017-07-25T02:32:59.846Z,99.90
2017-07-25T02:35:27.928Z,99.90
2017-07-25T02:37:56.037Z,99.90
2017-07-25T02:40:24.237Z,99.70
2017-07-25T02:42:52.234Z,99.30
2017-07-25T02:45:20.312Z,98.70
2017-07-25T02:47:48.492Z,98.50
2017-07-25T02:50:16.531Z,98.00
2017-07-25T02:52:44.618Z,97.40
2017-07-25T02:55:12.825Z,96.80
2017-07-25T02:57:40.830Z,96.90
2017-07-25T03:00:08.875Z,96.40
2017-07-25T03:02:37.045Z,96.70
2017-07-25T03:05:05.097Z,96.50
2017-07-25T03:07:33.168Z,96.30
2017-07-25T03:10:01.369Z,95.90
2017-07-25T03:12:29.471Z,94.30
2017-07-25T03:14:57.579Z,92.60
2017-07-25T03:17:25.904Z,91.10
2017-07-25T03:19:54.022Z,88.40
2017-07-25T03:22:22.106Z,84.10
2017-07-25T03:24:50.302Z,80.10
2017-07-25T03:27:18.347Z,73.10
2017-07-25T03:29:46.418Z,71.30
2017-07-25T03:32:14.633Z,66.90
2017-07-25T03:34:42.769Z,67.00
2017-07-25T03:37:10.846Z,66.30
2017-07-25T03:39:38.995Z,66.50
2017-07-25T03:42:07.008Z,64.00
2017-07-25T03:44:35.005Z,64.30
2017-07-25T03:47:03.151Z,64.10
2017-07-25T03:49:31.245Z,63.20
2017-07-25T03:51:59.321Z,62.30
2017-07-25T03:54:27.550Z,61.40
2017-07-25T03:56:55.638Z,60.90
2017-07-25T03:59:23.787Z,59.80
2017-07-25T04:01:51.998Z,59.60
2017-07-25T04:04:20.106Z,59.40
2017-07-25T04:06:48.128Z,58.40
2017-07-25T04:09:16.326Z,58.00
2017-07-25T04:11:44.405Z,57.80
2017-07-25T04:14:12.434Z,57.20
2017-07-25T04:16:40.694Z,57.00
2017-07-25T04:19:08.901Z,56.20
2017-07-25T04:21:36.968Z,56.60
2017-07-25T04:24:05.110Z,55.90
2017-07-25T04:26:33.148Z,55.50
2017-07-25T04:29:01.211Z,55.50
2017-07-25T04:31:29.525Z,55.20
2017-07-25T04:33:57.590Z,54.30
2017-07-25T04:36:25.680Z,54.30
2017-07-25T04:38:53.906Z,53.70
2017-07-25T04:41:22.010Z,53.40
2017-07-25T04:43:52.078Z,53.10
2017-07-25T04:46:20.243Z,53.10
2017-07-25T04:48:48.285Z,52.30
2017-07-25T04:51:16.330Z,51.40
2017-07-25T04:53:44.508Z,49.90
2017-07-25T04:56:12.610Z,48.50
2017-07-25T04:58:40.619Z,47.30
2017-07-25T05:01:08.770Z,47.30
2017-07-25T05:03:36.770Z,46.40
2017-07-25T05:06:04.913Z,46.60
2017-07-25T05:08:33.143Z,46.40
2017-07-25T05:11:01.175Z,47.20
2017-07-25T05:13:29.249Z,47.40
2017-07-25T05:15:57.420Z,47.60
2017-07-25T05:18:36.839Z,47.10
2017-07-25T05:21:05.129Z,46.10
2017-07-25T05:23:33.171Z,45.10
2017-07-25T05:26:01.273Z,45.00
2017-07-25T05:28:29.444Z,44.80
2017-07-25T05:30:57.539Z,44.10
2017-07-25T05:33:25.572Z,43.10
2017-07-25T05:35:53.799Z,43.10
2017-07-25T05:38:21.860Z,43.10
2017-07-25T05:40:49.909Z,43.90
2017-07-25T05:43:18.098Z,43.60
2017-07-25T05:45:46.122Z,43.90
2017-07-25T05:48:14.280Z,44.10
2017-07-25T05:50:42.484Z,44.20
2017-07-25T05:53:10.522Z,44.50
2017-07-25T05:55:38.545Z,44.30
2017-07-25T05:58:06.716Z,44.30
2017-07-25T06:00:34.752Z,44.10
2017-07-25T06:03:02.858Z,42.70
2017-07-25T06:05:31.021Z,41.40
2017-07-25T06:07:59.115Z,40.80
2017-07-25T06:10:27.224Z,40.80
2017-07-25T06:12:55.385Z,40.10
2017-07-25T06:15:23.481Z,39.40
2017-07-25T06:17:51.546Z,39.30
2017-07-25T06:20:19.743Z,38.30
2017-07-25T06:22:47.912Z,38.30
2017-07-25T06:25:15.968Z,39.40
2017-07-25T06:27:44.148Z,39.30
2017-07-25T06:30:12.173Z,39.50
2017-07-25T06:32:40.241Z,39.70
2017-07-25T06:35:08.422Z,39.80
2017-07-25T06:37:36.484Z,39.20
2017-07-25T06:40:04.518Z,39.20
2017-07-25T06:42:32.750Z,38.80
2017-07-25T06:45:00.743Z,38.60
2017-07-25T06:47:28.737Z,39.00
2017-07-25T06:49:56.899Z,37.70
2017-07-25T06:52:24.968Z,37.80
2017-07-25T06:54:52.990Z,38.30
2017-07-25T06:57:21.151Z,37.60
2017-07-25T06:59:49.199Z,37.10
2017-07-25T07:02:17.315Z,36.90
2017-07-25T07:04:45.480Z,35.50
2017-07-25T07:07:13.552Z,34.80
2017-07-25T07:09:41.960Z,34.20
2017-07-25T07:12:10.170Z,34.20
2017-07-25T07:14:38.211Z,33.80
2017-07-25T07:17:06.306Z,33.30
2017-07-25T07:19:34.493Z,32.30
2017-07-25T07:22:02.553Z,32.90
2017-07-25T07:24:30.789Z,33.40
2017-07-25T07:26:58.985Z,33.60
2017-07-25T07:29:27.131Z,34.30
2017-07-25T07:31:55.183Z,34.20
2017-07-25T07:34:23.381Z,34.40
2017-07-25T07:36:51.432Z,34.60
2017-07-25T07:39:19.507Z,35.60
2017-07-25T07:41:47.699Z,35.00
2017-07-25T07:44:15.766Z,35.10
2017-07-25T07:46:43.846Z,34.40
2017-07-25T07:49:12.051Z,35.80
2017-07-25T07:51:40.226Z,36.80
2017-07-25T07:54:08.359Z,36.40
2017-07-25T07:56:36.672Z,36.20
2017-07-25T07:59:04.855Z,35.20
2017-07-25T08:01:32.914Z,35.60
2017-07-25T08:04:01.109Z,36.10
2017-07-25T08:06:29.154Z,39.60
2017-07-25T08:08:57.227Z,38.10
2017-07-25T08:11:25.410Z,37.00
2017-07-25T08:13:53.468Z,36.30
2017-07-25T08:16:21.535Z,37.30
2017-07-25T08:18:49.714Z,36.80
2017-07-25T08:21:17.828Z,37.20
2017-07-25T08:23:45.863Z,36.90
2017-07-25T08:26:14.237Z,36.10
2017-07-25T08:28:42.276Z,35.90
2017-07-25T08:31:10.302Z,38.30
2017-07-25T08:33:38.512Z,37.80
2017-07-25T08:36:06.715Z,37.30
2017-07-25T08:38:34.792Z,38.10
2017-07-25T08:41:03.007Z,38.70
2017-07-25T08:43:31.071Z,38.40
2017-07-25T08:45:59.160Z,38.00
2017-07-25T08:48:27.346Z,37.00
2017-07-25T08:50:55.406Z,36.90
2017-07-25T08:53:23.477Z,37.10
2017-07-25T08:55:51.690Z,36.80
2017-07-25T08:58:20.588Z,37.10
2017-07-25T09:00:48.641Z,38.40
2017-07-25T09:03:16.831Z,40.30
2017-07-25T09:05:44.836Z,39.30
2017-07-25T09:08:12.896Z,36.90
2017-07-25T09:10:41.116Z,35.30
2017-07-25T09:13:09.136Z,34.80
2017-07-25T09:15:37.174Z,41.30
2017-07-25T09:18:05.368Z,41.30
2017-07-25T09:20:33.616Z,41.80
2017-07-25T09:23:02.658Z,41.80
2017-07-25T09:25:30.854Z,42.20
2017-07-25T09:27:59.068Z,42.30
2017-07-25T09:30:27.083Z,42.70
2017-07-25T09:32:55.234Z,42.70
2017-07-25T09:35:23.283Z,43.40
2017-07-25T09:37:51.330Z,42.10
2017-07-25T09:40:19.500Z,42.20
2017-07-25T09:42:47.605Z,42.40
2017-07-25T09:45:15.686Z,42.60
2017-07-25T09:47:43.880Z,42.70
2017-07-25T09:50:11.947Z,42.90
2017-07-25T09:52:40.002Z,43.90
2017-07-25T09:55:08.200Z,44.30
2017-07-25T09:57:36.238Z,44.40
2017-07-25T10:00:04.488Z,44.60
2017-07-25T10:02:32.703Z,45.20
2017-07-25T10:05:00.772Z,45.40
2017-07-25T10:07:28.877Z,44.30
2017-07-25T10:09:57.084Z,44.70
2017-07-25T10:12:25.084Z,45.20
2017-07-25T10:14:53.158Z,45.10
2017-07-25T10:17:21.369Z,45.60
2017-07-25T10:19:49.383Z,46.30
2017-07-25T10:22:17.482Z,45.30
2017-07-25T10:24:45.642Z,46.50
2017-07-25T10:27:13.695Z,46.70
2017-07-25T10:29:41.871Z,47.20
2017-07-25T10:32:10.045Z,46.70
2017-07-25T10:34:38.102Z,46.70
2017-07-25T10:37:06.148Z,46.30
2017-07-25T10:39:34.331Z,45.00
2017-07-25T10:42:02.396Z,44.20
2017-07-25T10:44:30.422Z,42.90
2017-07-25T10:46:58.564Z,43.10
2017-07-25T10:49:26.668Z,42.90
2017-07-25T10:51:54.717Z,42.60
2017-07-25T10:54:22.894Z,42.10
2017-07-25T10:56:50.972Z,41.90
2017-07-25T10:59:19.033Z,41.90
2017-07-25T11:01:47.206Z,42.10
2017-07-25T11:04:15.214Z,41.80
2017-07-25T11:06:43.291Z,40.80
2017-07-25T11:09:11.434Z,41.60
2017-07-25T11:11:39.482Z,41.80
2017-07-25T11:14:07.529Z,42.20
2017-07-25T11:16:35.687Z,42.80
2017-07-25T11:19:03.758Z,43.40
2017-07-25T11:21:31.800Z,43.90
2017-07-25T11:24:00.005Z,43.60
2017-07-25T11:26:28.050Z,43.40
2017-07-25T11:28:56.078Z,42.20
2017-07-25T11:31:24.416Z,41.00
2017-07-25T11:33:52.473Z,42.80
2017-07-25T11:36:20.470Z,44.90
2017-07-25T11:38:48.626Z,45.10
2017-07-25T11:41:16.641Z,45.10
2017-07-25T11:43:44.680Z,44.50
2017-07-25T11:46:12.915Z,45.90
2017-07-25T11:48:40.957Z,45.70
2017-07-25T11:51:09.080Z,45.30
2017-07-25T11:53:37.359Z,45.60
2017-07-25T11:56:05.471Z,47.50
2017-07-25T11:58:33.517Z,49.70
2017-07-25T12:01:01.731Z,49.60
2017-07-25T12:03:29.765Z,49.50
2017-07-25T12:05:57.790Z,48.40
2017-07-25T12:08:25.979Z,48.90
2017-07-25T12:10:54.005Z,50.10
2017-07-25T12:13:22.053Z,50.10
2017-07-25T12:15:50.276Z,50.10
2017-07-25T12:18:18.292Z,50.60
2017-07-25T12:20:57.840Z,50.50
2017-07-25T12:23:25.891Z,50.60
2017-07-25T12:25:53.953Z,51.40
2017-07-25T12:28:22.120Z,52.40
2017-07-25T12:30:50.197Z,53.40
2017-07-25T12:33:18.345Z,54.00
2017-07-25T12:35:46.489Z,52.70
2017-07-25T12:38:14.513Z,50.30
2017-07-25T12:40:42.523Z,50.00
2017-07-25T12:43:10.712Z,50.50
2017-07-25T12:45:38.727Z,52.00
2017-07-25T12:48:06.754Z,52.60
2017-07-25T12:50:34.924Z,49.50
2017-07-25T12:53:03.027Z,49.90
2017-07-25T12:55:31.095Z,49.40
2017-07-25T12:57:59.222Z,50.10
2017-07-25T13:00:33.220Z,50.50
2017-07-25T13:03:12.830Z,50.90
2017-07-25T13:05:40.854Z,52.50
2017-07-25T13:08:08.900Z,54.10
2017-07-25T13:10:37.100Z,54.50
2017-07-25T13:13:05.203Z,55.50
2017-07-25T13:15:33.294Z,57.30
2017-07-25T13:18:01.500Z,58.20
2017-07-25T13:20:29.700Z,58.30
2017-07-25T13:22:57.759Z,62.00
2017-07-25T13:25:25.949Z,64.20
2017-07-25T13:27:54.006Z,63.80
2017-07-25T13:30:22.187Z,66.20
2017-07-25T13:32:50.350Z,67.00
2017-07-25T13:35:18.549Z,67.40
2017-07-25T13:37:46.532Z,68.20
2017-07-25T13:40:14.674Z,67.80
2017-07-25T13:42:42.738Z,69.00
2017-07-25T13:45:10.840Z,68.30
2017-07-25T13:47:38.994Z,70.10
2017-07-25T13:50:07.037Z,72.00
2017-07-25T13:52:35.117Z,73.10
2017-07-25T13:55:03.467Z,74.90
2017-07-25T13:57:31.521Z,75.30
2017-07-25T13:59:59.547Z,77.90
2017-07-25T14:02:27.762Z,79.60
2017-07-25T14:04:55.826Z,81.00
2017-07-25T14:07:23.844Z,83.00
2017-07-25T14:09:52.101Z,85.10
2017-07-25T14:12:20.188Z,87.20
2017-07-25T14:14:48.223Z,89.30
2017-07-25T14:17:16.413Z,90.90
2017-07-25T14:19:44.449Z,92.30
2017-07-25T14:22:12.441Z,93.30
2017-07-25T14:24:40.619Z,94.80
2017-07-25T14:27:08.691Z,95.50
2017-07-25T14:29:36.759Z,96.20
2017-07-25T14:32:04.943Z,96.60
2017-07-25T14:34:33.046Z,97.20
2017-07-25T14:37:01.236Z,98.30
2017-07-25T14:39:29.402Z,99.90
2017-07-25T14:41:57.504Z,99.90
2017-07-25T14:44:25.552Z,99.90
2017-07-25T14:46:53.724Z,99.90
2017-07-25T14:49:21.761Z,99.90
2017-07-25T14:51:49.808Z,99.90
2017-07-25T14:54:18.003Z,99.90
2017-07-25T14:56:46.059Z,99.90
2017-07-25T14:59:14.155Z,99.90
2017-07-25T15:01:42.381Z,99.90
2017-07-25T15:04:10.442Z,99.90
2017-07-25T15:06:38.519Z,99.90
2017-07-25T15:09:06.646Z,99.90
2017-07-25T15:11:34.662Z,99.90
2017-07-25T15:14:02.662Z,99.90
2017-07-25T15:16:30.836Z,99.90
2017-07-25T15:18:58.975Z,99.90
2017-07-25T15:21:26.992Z,99.90
2017-07-25T15:23:55.170Z,99.90
2017-07-25T15:26:23.243Z,99.90
2017-07-25T15:28:51.355Z,99.90
2017-07-25T15:31:19.518Z,99.90
2017-07-25T15:33:48.406Z,99.90
2017-07-25T15:36:17.382Z,99.90
2017-07-25T15:38:45.686Z,99.90
2017-07-25T15:41:13.740Z,99.90
2017-07-25T15:43:41.798Z,99.90
2017-07-25T15:46:10.034Z,99.90
2017-07-25T15:48:38.050Z,99.90
2017-07-25T15:51:06.236Z,99.90
2017-07-25T15:53:34.379Z,99.90
2017-07-25T15:56:02.446Z,99.90
2017-07-25T15:58:30.522Z,99.90
2017-07-25T16:00:58.673Z,99.90
2017-07-25T16:03:26.755Z,99.90
2017-07-25T16:05:54.849Z,99.90
2017-07-25T16:08:23.066Z,99.90
2017-07-25T16:10:51.101Z,99.90
2017-07-25T16:13:19.170Z,99.90
2017-07-25T16:15:47.326Z,99.90
2017-07-25T16:18:15.447Z,99.90
2017-07-25T16:20:43.547Z,99.90
2017-07-25T16:23:11.752Z,99.90
2017-07-25T16:25:39.828Z,99.90
2017-07-25T16:28:07.973Z,99.90
2017-07-25T16:30:36.176Z,99.90
2017-07-25T16:33:04.063Z,99.90
2017-07-25T16:35:32.105Z,99.90
2017-07-25T16:38:00.248Z,99.90
2017-07-25T16:40:28.491Z,99.90
2017-07-25T16:42:56.575Z,99.90
2017-07-25T16:45:24.743Z,99.90
2017-07-25T16:47:52.773Z,99.90
2017-07-25T16:50:20.769Z,99.90
2017-07-25T16:52:48.946Z,99.90
2017-07-25T16:55:16.965Z,99.90
2017-07-25T16:57:45.056Z,99.90
2017-07-25T17:00:13.243Z,99.90
2017-07-25T17:02:41.283Z,99.90
2017-07-25T17:05:09.402Z,99.90
2017-07-25T17:07:37.562Z,99.90
2017-07-25T17:10:05.758Z,99.90
2017-07-25T17:12:33.797Z,99.90
2017-07-25T17:15:02.068Z,99.90
2017-07-25T17:17:30.167Z,99.90
2017-07-25T17:19:58.196Z,99.90
2017-07-25T17:22:26.400Z,99.90
2017-07-25T17:24:54.448Z,99.90
2017-07-25T17:27:22.506Z,99.90
2017-07-25T17:29:50.712Z,99.90
2017-07-25T17:32:18.727Z,99.90
2017-07-25T17:34:46.773Z,99.90
2017-07-25T17:37:14.944Z,99.90
2017-07-25T17:39:42.970Z,99.90
2017-07-25T17:42:11.214Z,99.90
2017-07-25T17:44:39.440Z,99.90
2017-07-25T17:47:07.442Z,99.90
2017-07-25T17:49:35.493Z,99.90
2017-07-25T17:52:03.833Z,99.90
2017-07-25T17:54:31.923Z,99.90
2017-07-25T17:56:59.978Z,99.90
2017-07-25T17:59:28.165Z,99.90
2017-07-25T18:01:56.247Z,99.90
2017-07-25T18:04:24.488Z,99.90
2017-07-25T18:06:52.657Z,99.90
2017-07-25T18:09:20.671Z,99.90
2017-07-25T18:11:48.714Z,99.90
2017-07-25T18:14:16.923Z,99.90
2017-07-25T18:16:45.044Z,99.90
2017-07-25T18:19:13.122Z,99.90
2017-07-25T18:21:41.276Z,99.90
2017-07-25T18:24:09.326Z,99.90
2017-07-25T18:26:37.326Z,99.90
2017-07-25T18:29:05.560Z,99.90
2017-07-25T18:31:33.676Z,99.90
2017-07-25T18:34:01.726Z,99.90
2017-07-25T18:36:29.902Z,99.90
2017-07-25T18:38:57.893Z,99.90
2017-07-25T18:41:25.918Z,99.90
2017-07-25T18:43:54.340Z,99.90
2017-07-25T18:46:22.334Z,99.90
2017-07-25T18:48:50.354Z,99.90
2017-07-25T18:51:18.526Z,99.90
2017-07-25T18:53:46.791Z,99.90
2017-07-25T18:56:14.878Z,99.90
2017-07-25T18:58:43.088Z,99.90
2017-07-25T19:01:11.115Z,99.90
2017-07-25T19:03:39.150Z,99.90
2017-07-25T19:06:07.273Z,99.90
2017-07-25T19:08:35.278Z,99.90
2017-07-25T19:11:03.346Z,99.90
2017-07-25T19:13:31.570Z,99.90
2017-07-25T19:15:59.598Z,99.90
2017-07-25T19:18:27.604Z,99.90
2017-07-25T19:20:55.812Z,99.90
2017-07-25T19:23:23.872Z,99.90
2017-07-25T19:25:51.967Z,99.90
2017-07-25T19:28:20.138Z,99.90
2017-07-25T19:30:48.251Z,99.90
2017-07-25T19:33:16.278Z,99.90
2017-07-25T19:35:44.452Z,99.90
2017-07-25T19:38:12.532Z,99.90
2017-07-25T19:40:40.633Z,99.90
2017-07-25T19:43:08.768Z,99.90
2017-07-25T19:45:36.981Z,99.90
2017-07-25T19:48:05.100Z,99.90
2017-07-25T19:50:33.304Z,99.90
2017-07-25T19:53:01.373Z,99.90
2017-07-25T19:55:29.470Z,99.90
2017-07-25T19:57:57.613Z,99.90
2017-07-25T20:00:25.729Z,99.90
2017-07-25T20:02:53.754Z,99.90
2017-07-25T20:05:21.914Z,99.90
2017-07-25T20:07:49.964Z,99.90
2017-07-25T20:10:17.987Z,99.90
2017-07-25T20:12:46.214Z,99.90
2017-07-25T20:15:14.299Z,99.90
2017-07-25T20:17:42.348Z,99.90
2017-07-25T20:20:10.520Z,99.90
2017-07-25T20:22:38.617Z,99.90
2017-07-25T20:25:06.597Z,99.90
2017-07-25T20:27:34.778Z,99.90
2017-07-25T20:30:02.899Z,99.90
2017-07-25T20:32:30.967Z,99.90
2017-07-25T20:34:59.239Z,99.90
2017-07-25T20:37:27.296Z,99.90
2017-07-25T20:39:55.358Z,99.90
2017-07-25T20:42:23.537Z,99.90
2017-07-25T20:44:51.581Z,99.90
2017-07-25T20:47:19.798Z,99.90
2017-07-25T20:49:47.940Z,99.90
2017-07-25T20:52:16.007Z,99.90
2017-07-25T20:54:44.038Z,99.90
2017-07-25T20:57:12.241Z,99.90
2017-07-25T20:59:40.289Z,99.90
2017-07-25T21:02:08.372Z,99.90
2017-07-25T21:04:36.494Z,99.90
2017-07-25T21:07:04.604Z,99.90
2017-07-25T21:09:32.636Z,99.90
2017-07-25T21:12:00.825Z,99.90
2017-07-25T21:14:28.911Z,99.90
2017-07-25T21:16:56.941Z,99.90
2017-07-25T21:19:25.101Z,99.90
2017-07-25T21:21:53.106Z,99.90
2017-07-25T21:24:21.136Z,99.90
2017-07-25T21:26:49.334Z,99.90
2017-07-25T21:29:17.394Z,99.90
2017-07-25T21:31:45.461Z,99.90
2017-07-25T21:34:13.683Z,99.90
2017-07-25T21:36:42.491Z,99.90
2017-07-25T21:39:10.482Z,99.90
2017-07-25T21:41:38.666Z,99.90
2017-07-25T21:44:06.752Z,99.90
2017-07-25T21:46:34.862Z,99.90
2017-07-25T21:49:03.184Z,99.90
2017-07-25T21:51:31.296Z,99.90
2017-07-25T21:53:59.452Z,99.90
2017-07-25T21:56:27.644Z,99.90
2017-07-25T21:58:55.744Z,99.90
2017-07-25T22:01:35.448Z,99.90
2017-07-25T22:04:14.862Z,99.90
2017-07-25T22:06:43.060Z,99.90
2017-07-25T22:09:11.077Z,99.90
2017-07-25T22:11:39.107Z,99.90
2017-07-25T22:14:07.300Z,99.90
2017-07-25T22:16:35.329Z,99.90
2017-07-25T22:19:03.377Z,99.90
2017-07-25T22:21:31.559Z,99.90
2017-07-25T22:23:59.611Z,99.90
2017-07-25T22:26:27.618Z,99.90
2017-07-25T22:28:55.773Z,99.90
2017-07-25T22:31:23.798Z,99.90
2017-07-25T22:33:51.887Z,99.90
2017-07-25T22:36:20.123Z,99.90
2017-07-25T22:38:48.191Z,99.90
2017-07-25T22:41:16.250Z,99.90
2017-07-25T22:43:44.502Z,99.90
2017-07-25T22:46:12.516Z,99.90
2017-07-25T22:48:40.542Z,99.90
2017-07-25T22:51:08.860Z,99.90
2017-07-25T22:53:36.992Z,99.90
2017-07-25T22:56:05.086Z,99.90
2017-07-25T22:58:33.307Z,99.90
2017-07-25T23:01:01.484Z,99.90
2017-07-25T23:03:29.536Z,99.90
2017-07-25T23:05:57.713Z,99.90
2017-07-25T23:08:25.740Z,99.90
2017-07-25T23:10:53.880Z,99.90
2017-07-25T23:13:22.065Z,99.90
2017-07-25T23:15:50.117Z,99.90
2017-07-25T23:18:18.136Z,99.90
2017-07-25T23:20:46.339Z,99.90
2017-07-25T23:23:14.378Z,99.90
2017-07-25T23:25:42.398Z,99.90
2017-07-25T23:28:10.591Z,99.90
2017-07-25T23:30:38.708Z,99.90
2017-07-25T23:33:06.761Z,99.90
2017-07-25T23:35:35.136Z,99.90
2017-07-25T23:38:03.182Z,99.90
2017-07-25T23:40:31.201Z,99.90
2017-07-25T23:42:59.376Z,99.90
2017-07-25T23:45:27.412Z,99.90
2017-07-25T23:47:55.457Z,99.90
2017-07-25T23:50:23.703Z,99.90
2017-07-25T23:52:51.880Z,99.90
2017-07-25T23:55:19.902Z,99.90
2017-07-25T23:57:48.136Z,99.90
